KDNL

Daniel Field Airport

Augusta, Georgia, USA
KDNL 230537Z 2306/2406 08006KT P6SM OVC016 WS020/14035KT FM231000 VRB04KT 4SM BR VCSH OVC009 FM232000 16008KT P6SM VCSH BKN030 FM240200 16014KT 5SM -SHRA BR BKN015
Issued Valid From Valid To
Jan-23 @ 05:37 UTC
(2 hours ago)
Jan-23 @ 06:00 UTC
(an hour ago)
Jan-24 @ 06:00 UTC
(in 23 hours)
Jan-23 @ 06:00 to Jan-23 @ 10:00
KDNL 230537Z 2306/2406 08006KT P6SM OVC016 WS020/14035KT
Wind Visibility Clouds
80° at 6 knots
 Wind shear 2,000' AGL from 140° at 35 knots
Greater than 6 miles
  • Overcast at 1,600' AGL
From Jan-23 @ 10:00 to Jan-23 @ 20:00
FM231000 VRB04KT 4SM BR VCSH OVC009
Wind Visibility Clouds Conditions
Variable at 4 knots 4 miles
  • Overcast at 900' AGL
  • Mist
From Jan-23 @ 20:00 to Jan-24 @ 02:00
FM232000 16008KT P6SM VCSH BKN030
Wind Visibility Clouds
160° at 8 knots Greater than 6 miles
  • Broken at 3,000' AGL
From Jan-24 @ 02:00 to Jan-24 @ 06:00
FM240200 16014KT 5SM -SHRA BR BKN015
Wind Visibility Clouds Conditions
160° at 14 knots 5 miles
  • Broken at 1,500' AGL
  • Light Rain
  • Mist
KDNL 230537Z 2306/2406 08006KT P6SM OVC016 WS020/14035KT FM231000 VRB04KT 4SM BR VCSH OVC009 FM232000 16008KT P6SM VCSH BKN030 FM240200 16014KT 5SM -SHRA BR BKN015
Issued Jan-23 @ 05:37 UTC
(2 hours ago)
Valid From Jan-23 @ 06:00 UTC
(an hour ago)
Valid To Jan-24 @ 06:00 UTC
(in 23 hours)
Jan-23 @ 06:00 - Jan-23 @ 10:00
Wind Visibility
80° at 6 knots Greater than 6 miles
Clouds
  • Overcast at 1,600' AGL
From Jan-23 @ 10:00 - Jan-23 @ 20:00
Wind Visibility
Variable at 4 knots 4 miles
Clouds
  • Overcast at 900' AGL
Conditions
  • Mist
From Jan-23 @ 20:00 - Jan-24 @ 02:00
Wind Visibility
160° at 8 knots Greater than 6 miles
Clouds
  • Broken at 3,000' AGL
From Jan-24 @ 02:00 - Jan-24 @ 06:00
Wind Visibility
160° at 14 knots 5 miles
Clouds
  • Broken at 1,500' AGL
Conditions
  • Light Rain
  • Mist